sensor_id;sensor_type;location;lat;lon;timestamp;P1;durP1;ratioP1;P2;durP2;ratioP2
58196;SDS011;43999;51.660;5.616;2023-02-18T00:01:56;30.73;;;26.60;;
58196;SDS011;43999;51.660;5.616;2023-02-18T00:04:24;32.72;;;25.50;;
58196;SDS011;43999;51.660;5.616;2023-02-18T00:06:52;27.95;;;24.60;;
58196;SDS011;43999;51.660;5.616;2023-02-18T00:09:19;31.67;;;26.45;;
58196;SDS011;43999;51.660;5.616;2023-02-18T00:11:46;33.70;;;25.60;;
58196;SDS011;43999;51.660;5.616;2023-02-18T00:14:17;33.80;;;28.58;;
58196;SDS011;43999;51.660;5.616;2023-02-18T00:16:44;33.67;;;27.50;;
58196;SDS011;43999;51.660;5.616;2023-02-18T00:19:15;40.90;;;29.17;;
58196;SDS011;43999;51.660;5.616;2023-02-18T00:21:46;35.75;;;28.20;;
58196;SDS011;43999;51.660;5.616;2023-02-18T00:24:14;41.00;;;30.63;;
58196;SDS011;43999;51.660;5.616;2023-02-18T00:26:43;32.38;;;25.27;;
58196;SDS011;43999;51.660;5.616;2023-02-18T00:29:13;35.03;;;27.90;;
58196;SDS011;43999;51.660;5.616;2023-02-18T00:31:41;33.50;;;26.90;;
58196;SDS011;43999;51.660;5.616;2023-02-18T00:34:09;35.10;;;26.55;;
58196;SDS011;43999;51.660;5.616;2023-02-18T00:36:39;33.38;;;28.38;;
58196;SDS011;43999;51.660;5.616;2023-02-18T00:39:10;43.72;;;28.77;;
58196;SDS011;43999;51.660;5.616;2023-02-18T00:41:40;38.28;;;27.67;;
58196;SDS011;43999;51.660;5.616;2023-02-18T00:44:09;36.28;;;28.73;;
58196;SDS011;43999;51.660;5.616;2023-02-18T00:46:40;33.38;;;29.75;;
58196;SDS011;43999;51.660;5.616;2023-02-18T00:49:09;37.85;;;31.50;;
58196;SDS011;43999;51.660;5.616;2023-02-18T00:51:40;37.10;;;32.75;;
58196;SDS011;43999;51.660;5.616;2023-02-18T00:54:09;40.08;;;29.85;;
58196;SDS011;43999;51.660;5.616;2023-02-18T00:56:36;38.88;;;33.38;;
58196;SDS011;43999;51.660;5.616;2023-02-18T00:59:04;41.17;;;35.15;;
58196;SDS011;43999;51.660;5.616;2023-02-18T01:01:32;43.00;;;34.47;;
58196;SDS011;43999;51.660;5.616;2023-02-18T01:04:01;37.53;;;33.17;;
58196;SDS011;43999;51.660;5.616;2023-02-18T01:06:30;42.45;;;32.67;;
58196;SDS011;43999;51.660;5.616;2023-02-18T01:09:01;41.90;;;32.15;;
58196;SDS011;43999;51.660;5.616;2023-02-18T01:11:37;41.05;;;35.35;;
58196;SDS011;43999;51.660;5.616;2023-02-18T01:14:05;38.85;;;30.90;;
58196;SDS011;43999;51.660;5.616;2023-02-18T01:16:35;42.35;;;34.13;;
58196;SDS011;43999;51.660;5.616;2023-02-18T01:19:06;40.95;;;32.65;;
58196;SDS011;43999;51.660;5.616;2023-02-18T01:21:36;42.95;;;37.33;;
58196;SDS011;43999;51.660;5.616;2023-02-18T01:24:05;46.65;;;32.40;;
58196;SDS011;43999;51.660;5.616;2023-02-18T01:26:34;39.80;;;35.08;;
58196;SDS011;43999;51.660;5.616;2023-02-18T01:29:01;52.78;;;39.17;;
58196;SDS011;43999;51.660;5.616;2023-02-18T01:31:29;50.20;;;38.83;;
58196;SDS011;43999;51.660;5.616;2023-02-18T01:33:59;54.05;;;42.88;;
58196;SDS011;43999;51.660;5.616;2023-02-18T01:36:27;46.95;;;40.03;;
58196;SDS011;43999;51.660;5.616;2023-02-18T01:38:57;48.25;;;41.08;;
58196;SDS011;43999;51.660;5.616;2023-02-18T01:41:25;47.80;;;38.33;;
58196;SDS011;43999;51.660;5.616;2023-02-18T01:44:15;48.85;;;41.95;;
58196;SDS011;43999;51.660;5.616;2023-02-18T01:46:50;51.30;;;38.65;;
58196;SDS011;43999;51.660;5.616;2023-02-18T01:49:23;56.75;;;42.13;;
58196;SDS011;43999;51.660;5.616;2023-02-18T01:51:59;58.33;;;47.35;;
58196;SDS011;43999;51.660;5.616;2023-02-18T01:54:42;62.85;;;49.28;;
58196;SDS011;43999;51.660;5.616;2023-02-18T01:57:21;62.97;;;44.13;;
58196;SDS011;43999;51.660;5.616;2023-02-18T02:00:04;56.90;;;43.95;;
58196;SDS011;43999;51.660;5.616;2023-02-18T02:02:45;65.50;;;45.72;;
58196;SDS011;43999;51.660;5.616;2023-02-18T02:05:18;67.78;;;49.50;;
58196;SDS011;43999;51.660;5.616;2023-02-18T02:07:49;69.20;;;50.33;;
58196;SDS011;43999;51.660;5.616;2023-02-18T02:10:22;67.93;;;47.95;;
58196;SDS011;43999;51.660;5.616;2023-02-18T02:36:12;76.90;;;53.10;;
58196;SDS011;43999;51.660;5.616;2023-02-18T02:42:13;71.82;;;45.83;;
58196;SDS011;43999;51.660;5.616;2023-02-18T02:45:43;68.85;;;46.38;;
58196;SDS011;43999;51.660;5.616;2023-02-18T02:51:53;68.28;;;45.67;;
58196;SDS011;43999;51.660;5.616;2023-02-18T02:54:41;66.85;;;45.03;;
58196;SDS011;43999;51.660;5.616;2023-02-18T02:59:53;62.00;;;41.42;;
58196;SDS011;43999;51.660;5.616;2023-02-18T03:02:51;68.88;;;42.33;;
58196;SDS011;43999;51.660;5.616;2023-02-18T03:12:46;50.03;;;34.67;;
58196;SDS011;43999;51.660;5.616;2023-02-18T03:19:21;44.33;;;32.17;;
58196;SDS011;43999;51.660;5.616;2023-02-18T03:22:18;42.08;;;31.60;;
58196;SDS011;43999;51.660;5.616;2023-02-18T03:24:57;47.72;;;29.77;;
58196;SDS011;43999;51.660;5.616;2023-02-18T03:27:33;40.50;;;27.20;;
58196;SDS011;43999;51.660;5.616;2023-02-18T03:30:39;40.92;;;27.73;;
58196;SDS011;43999;51.660;5.616;2023-02-18T03:33:22;37.50;;;24.67;;
58196;SDS011;43999;51.660;5.616;2023-02-18T03:36:11;34.17;;;22.05;;
58196;SDS011;43999;51.660;5.616;2023-02-18T03:39:07;30.02;;;20.30;;
58196;SDS011;43999;51.660;5.616;2023-02-18T03:41:51;32.38;;;20.27;;
58196;SDS011;43999;51.660;5.616;2023-02-18T03:44:40;26.08;;;19.77;;
58196;SDS011;43999;51.660;5.616;2023-02-18T03:47:27;24.67;;;19.05;;
58196;SDS011;43999;51.660;5.616;2023-02-18T03:49:57;25.42;;;16.35;;
58196;SDS011;43999;51.660;5.616;2023-02-18T03:52:37;24.20;;;18.50;;
58196;SDS011;43999;51.660;5.616;2023-02-18T03:55:07;23.30;;;15.95;;
58196;SDS011;43999;51.660;5.616;2023-02-18T03:57:37;19.85;;;16.13;;
58196;SDS011;43999;51.660;5.616;2023-02-18T04:00:08;16.73;;;12.57;;
58196;SDS011;43999;51.660;5.616;2023-02-18T04:02:39;16.95;;;13.52;;
58196;SDS011;43999;51.660;5.616;2023-02-18T04:05:08;16.40;;;13.80;;
58196;SDS011;43999;51.660;5.616;2023-02-18T04:07:42;17.70;;;13.30;;
58196;SDS011;43999;51.660;5.616;2023-02-18T04:10:13;18.85;;;11.93;;
58196;SDS011;43999;51.660;5.616;2023-02-18T04:12:42;15.10;;;10.93;;
58196;SDS011;43999;51.660;5.616;2023-02-18T04:15:11;16.30;;;11.85;;
58196;SDS011;43999;51.660;5.616;2023-02-18T04:17:47;13.63;;;9.73;;
58196;SDS011;43999;51.660;5.616;2023-02-18T04:20:20;13.65;;;9.80;;
58196;SDS011;43999;51.660;5.616;2023-02-18T04:22:54;12.18;;;9.65;;
58196;SDS011;43999;51.660;5.616;2023-02-18T04:25:26;11.20;;;8.57;;
58196;SDS011;43999;51.660;5.616;2023-02-18T04:27:59;13.55;;;9.85;;
58196;SDS011;43999;51.660;5.616;2023-02-18T04:30:41;12.00;;;8.63;;
58196;SDS011;43999;51.660;5.616;2023-02-18T04:33:40;10.10;;;7.35;;
58196;SDS011;43999;51.660;5.616;2023-02-18T04:38:46;8.82;;;7.20;;
58196;SDS011;43999;51.660;5.616;2023-02-18T04:41:17;9.48;;;6.13;;
58196;SDS011;43999;51.660;5.616;2023-02-18T04:43:45;10.88;;;7.25;;
58196;SDS011;43999;51.660;5.616;2023-02-18T04:46:19;8.45;;;6.60;;
58196;SDS011;43999;51.660;5.616;2023-02-18T04:48:49;13.90;;;7.07;;
58196;SDS011;43999;51.660;5.616;2023-02-18T04:51:23;9.48;;;6.63;;
58196;SDS011;43999;51.660;5.616;2023-02-18T04:53:56;9.43;;;6.28;;
58196;SDS011;43999;51.660;5.616;2023-02-18T04:56:32;9.75;;;7.55;;
58196;SDS011;43999;51.660;5.616;2023-02-18T04:59:02;9.73;;;6.65;;
58196;SDS011;43999;51.660;5.616;2023-02-18T05:01:31;10.32;;;7.38;;
58196;SDS011;43999;51.660;5.616;2023-02-18T05:04:05;10.52;;;7.13;;
58196;SDS011;43999;51.660;5.616;2023-02-18T05:06:48;9.57;;;7.20;;
58196;SDS011;43999;51.660;5.616;2023-02-18T05:09:24;10.35;;;6.70;;
58196;SDS011;43999;51.660;5.616;2023-02-18T05:11:57;10.57;;;8.73;;
58196;SDS011;43999;51.660;5.616;2023-02-18T05:14:27;10.50;;;7.78;;
58196;SDS011;43999;51.660;5.616;2023-02-18T05:17:02;11.77;;;9.27;;
58196;SDS011;43999;51.660;5.616;2023-02-18T05:19:32;11.25;;;8.35;;
58196;SDS011;43999;51.660;5.616;2023-02-18T05:22:00;13.07;;;8.77;;
58196;SDS011;43999;51.660;5.616;2023-02-18T05:24:34;9.60;;;7.78;;
58196;SDS011;43999;51.660;5.616;2023-02-18T05:27:18;12.25;;;7.95;;
58196;SDS011;43999;51.660;5.616;2023-02-18T05:29:55;9.05;;;7.53;;
58196;SDS011;43999;51.660;5.616;2023-02-18T05:32:29;8.07;;;6.60;;
58196;SDS011;43999;51.660;5.616;2023-02-18T05:35:05;10.52;;;7.40;;
58196;SDS011;43999;51.660;5.616;2023-02-18T05:37:36;9.80;;;6.80;;
58196;SDS011;43999;51.660;5.616;2023-02-18T05:40:07;9.23;;;6.40;;
58196;SDS011;43999;51.660;5.616;2023-02-18T05:42:40;9.82;;;8.05;;
58196;SDS011;43999;51.660;5.616;2023-02-18T05:45:20;9.38;;;7.35;;
58196;SDS011;43999;51.660;5.616;2023-02-18T05:47:52;10.48;;;7.68;;
58196;SDS011;43999;51.660;5.616;2023-02-18T05:50:40;11.45;;;7.70;;
58196;SDS011;43999;51.660;5.616;2023-02-18T05:53:23;10.80;;;7.68;;
58196;SDS011;43999;51.660;5.616;2023-02-18T05:55:56;11.30;;;8.20;;
58196;SDS011;43999;51.660;5.616;2023-02-18T05:58:32;11.98;;;7.28;;
58196;SDS011;43999;51.660;5.616;2023-02-18T06:01:08;11.10;;;9.13;;
58196;SDS011;43999;51.660;5.616;2023-02-18T06:03:35;10.80;;;7.82;;
58196;SDS011;43999;51.660;5.616;2023-02-18T06:06:16;11.23;;;8.02;;
58196;SDS011;43999;51.660;5.616;2023-02-18T06:08:43;10.10;;;7.38;;
58196;SDS011;43999;51.660;5.616;2023-02-18T06:11:16;9.77;;;7.70;;
58196;SDS011;43999;51.660;5.616;2023-02-18T06:13:46;11.02;;;8.40;;
58196;SDS011;43999;51.660;5.616;2023-02-18T06:16:16;10.95;;;8.55;;
58196;SDS011;43999;51.660;5.616;2023-02-18T06:18:51;14.10;;;9.88;;
58196;SDS011;43999;51.660;5.616;2023-02-18T06:21:22;11.85;;;8.95;;
58196;SDS011;43999;51.660;5.616;2023-02-18T06:23:54;11.32;;;8.48;;
58196;SDS011;43999;51.660;5.616;2023-02-18T06:26:25;14.20;;;8.55;;
58196;SDS011;43999;51.660;5.616;2023-02-18T06:29:00;10.27;;;8.40;;
58196;SDS011;43999;51.660;5.616;2023-02-18T06:31:37;12.55;;;9.48;;
58196;SDS011;43999;51.660;5.616;2023-02-18T06:34:16;11.88;;;8.50;;
58196;SDS011;43999;51.660;5.616;2023-02-18T06:36:52;13.55;;;9.30;;
58196;SDS011;43999;51.660;5.616;2023-02-18T06:39:27;14.52;;;9.55;;
58196;SDS011;43999;51.660;5.616;2023-02-18T06:41:59;15.77;;;11.30;;
58196;SDS011;43999;51.660;5.616;2023-02-18T06:44:28;15.48;;;11.40;;
58196;SDS011;43999;51.660;5.616;2023-02-18T06:46:56;15.10;;;11.20;;
58196;SDS011;43999;51.660;5.616;2023-02-18T06:49:35;16.25;;;11.90;;
58196;SDS011;43999;51.660;5.616;2023-02-18T06:52:07;16.23;;;13.45;;
58196;SDS011;43999;51.660;5.616;2023-02-18T06:54:44;14.68;;;12.65;;
58196;SDS011;43999;51.660;5.616;2023-02-18T06:57:17;17.45;;;14.50;;
58196;SDS011;43999;51.660;5.616;2023-02-18T06:59:47;16.90;;;14.10;;
58196;SDS011;43999;51.660;5.616;2023-02-18T07:02:23;16.77;;;15.05;;
58196;SDS011;43999;51.660;5.616;2023-02-18T07:04:53;17.15;;;13.52;;
58196;SDS011;43999;51.660;5.616;2023-02-18T07:07:21;18.35;;;14.27;;
58196;SDS011;43999;51.660;5.616;2023-02-18T07:09:54;20.13;;;17.05;;
58196;SDS011;43999;51.660;5.616;2023-02-18T07:12:25;19.75;;;15.82;;
58196;SDS011;43999;51.660;5.616;2023-02-18T07:15:15;21.88;;;19.08;;
58196;SDS011;43999;51.660;5.616;2023-02-18T07:17:44;20.42;;;16.83;;
58196;SDS011;43999;51.660;5.616;2023-02-18T07:20:18;18.25;;;16.33;;
58196;SDS011;43999;51.660;5.616;2023-02-18T07:22:49;18.95;;;14.45;;
58196;SDS011;43999;51.660;5.616;2023-02-18T07:25:20;15.60;;;13.50;;
58196;SDS011;43999;51.660;5.616;2023-02-18T07:27:53;14.30;;;12.82;;
58196;SDS011;43999;51.660;5.616;2023-02-18T07:30:25;18.13;;;14.18;;
58196;SDS011;43999;51.660;5.616;2023-02-18T07:32:56;15.40;;;12.32;;
58196;SDS011;43999;51.660;5.616;2023-02-18T07:35:25;13.63;;;11.40;;
58196;SDS011;43999;51.660;5.616;2023-02-18T07:37:54;12.95;;;10.95;;
58196;SDS011;43999;51.660;5.616;2023-02-18T07:40:26;13.50;;;9.23;;
58196;SDS011;43999;51.660;5.616;2023-02-18T07:43:00;12.98;;;9.82;;
58196;SDS011;43999;51.660;5.616;2023-02-18T07:45:36;10.73;;;9.18;;
58196;SDS011;43999;51.660;5.616;2023-02-18T07:48:18;14.10;;;10.82;;
58196;SDS011;43999;51.660;5.616;2023-02-18T07:50:46;11.48;;;9.27;;
58196;SDS011;43999;51.660;5.616;2023-02-18T07:53:27;14.05;;;10.80;;
58196;SDS011;43999;51.660;5.616;2023-02-18T07:56:06;12.38;;;10.25;;
58196;SDS011;43999;51.660;5.616;2023-02-18T07:58:39;16.63;;;10.68;;
58196;SDS011;43999;51.660;5.616;2023-02-18T08:01:19;17.40;;;12.18;;
58196;SDS011;43999;51.660;5.616;2023-02-18T08:03:48;16.77;;;10.88;;
58196;SDS011;43999;51.660;5.616;2023-02-18T08:06:41;14.13;;;12.40;;
58196;SDS011;43999;51.660;5.616;2023-02-18T08:09:34;16.05;;;11.50;;
58196;SDS011;43999;51.660;5.616;2023-02-18T08:12:20;21.45;;;12.40;;
58196;SDS011;43999;51.660;5.616;2023-02-18T08:14:54;15.38;;;11.75;;
58196;SDS011;43999;51.660;5.616;2023-02-18T08:17:55;14.52;;;11.05;;
58196;SDS011;43999;51.660;5.616;2023-02-18T08:20:36;14.27;;;9.32;;
58196;SDS011;43999;51.660;5.616;2023-02-18T08:23:23;17.48;;;11.82;;
58196;SDS011;43999;51.660;5.616;2023-02-18T08:25:56;19.58;;;11.38;;
58196;SDS011;43999;51.660;5.616;2023-02-18T08:28:42;15.93;;;10.27;;
58196;SDS011;43999;51.660;5.616;2023-02-18T08:31:23;15.52;;;10.48;;
58196;SDS011;43999;51.660;5.616;2023-02-18T08:34:03;13.70;;;9.73;;
58196;SDS011;43999;51.660;5.616;2023-02-18T08:36:49;21.20;;;13.02;;
58196;SDS011;43999;51.660;5.616;2023-02-18T08:39:18;25.05;;;9.50;;
58196;SDS011;43999;51.660;5.616;2023-02-18T08:41:45;15.35;;;10.50;;
58196;SDS011;43999;51.660;5.616;2023-02-18T08:45:01;18.45;;;10.02;;
58196;SDS011;43999;51.660;5.616;2023-02-18T08:47:45;23.80;;;12.35;;
58196;SDS011;43999;51.660;5.616;2023-02-18T08:50:36;17.75;;;9.27;;
58196;SDS011;43999;51.660;5.616;2023-02-18T08:53:15;17.20;;;9.93;;
58196;SDS011;43999;51.660;5.616;2023-02-18T08:55:49;14.93;;;9.88;;
58196;SDS011;43999;51.660;5.616;2023-02-18T08:58:18;14.35;;;9.27;;
58196;SDS011;43999;51.660;5.616;2023-02-18T09:00:50;17.63;;;8.20;;
58196;SDS011;43999;51.660;5.616;2023-02-18T09:03:33;15.40;;;9.32;;
58196;SDS011;43999;51.660;5.616;2023-02-18T09:06:12;12.40;;;8.50;;
58196;SDS011;43999;51.660;5.616;2023-02-18T09:08:46;18.95;;;11.57;;
58196;SDS011;43999;51.660;5.616;2023-02-18T09:11:29;13.65;;;9.35;;
58196;SDS011;43999;51.660;5.616;2023-02-18T09:14:33;17.83;;;9.23;;
58196;SDS011;43999;51.660;5.616;2023-02-18T09:17:25;18.35;;;10.18;;
58196;SDS011;43999;51.660;5.616;2023-02-18T09:20:11;14.15;;;10.27;;
58196;SDS011;43999;51.660;5.616;2023-02-18T09:22:52;14.20;;;8.73;;
58196;SDS011;43999;51.660;5.616;2023-02-18T09:25:50;21.17;;;10.02;;
58196;SDS011;43999;51.660;5.616;2023-02-18T09:28:36;19.17;;;10.52;;
58196;SDS011;43999;51.660;5.616;2023-02-18T09:31:19;17.23;;;8.52;;
58196;SDS011;43999;51.660;5.616;2023-02-18T09:33:53;20.92;;;11.32;;
58196;SDS011;43999;51.660;5.616;2023-02-18T09:36:33;17.50;;;8.70;;
58196;SDS011;43999;51.660;5.616;2023-02-18T09:39:37;14.65;;;8.73;;
58196;SDS011;43999;51.660;5.616;2023-02-18T09:42:38;13.82;;;8.02;;
58196;SDS011;43999;51.660;5.616;2023-02-18T09:45:14;16.25;;;7.53;;
58196;SDS011;43999;51.660;5.616;2023-02-18T09:47:58;13.60;;;6.95;;
58196;SDS011;43999;51.660;5.616;2023-02-18T09:51:21;13.90;;;7.32;;
58196;SDS011;43999;51.660;5.616;2023-02-18T09:53:56;15.20;;;6.93;;
58196;SDS011;43999;51.660;5.616;2023-02-18T09:57:14;11.90;;;6.28;;
58196;SDS011;43999;51.660;5.616;2023-02-18T10:00:43;11.82;;;6.38;;
58196;SDS011;43999;51.660;5.616;2023-02-18T10:03:20;10.52;;;5.40;;
58196;SDS011;43999;51.660;5.616;2023-02-18T10:09:20;12.70;;;6.40;;
58196;SDS011;43999;51.660;5.616;2023-02-18T10:12:21;10.13;;;5.15;;
58196;SDS011;43999;51.660;5.616;2023-02-18T10:15:18;13.13;;;5.55;;
58196;SDS011;43999;51.660;5.616;2023-02-18T10:21:11;16.67;;;5.43;;
58196;SDS011;43999;51.660;5.616;2023-02-18T10:27:08;9.27;;;5.20;;
58196;SDS011;43999;51.660;5.616;2023-02-18T10:30:21;15.52;;;7.20;;
58196;SDS011;43999;51.660;5.616;2023-02-18T10:33:56;11.07;;;5.68;;
58196;SDS011;43999;51.660;5.616;2023-02-18T10:44:39;10.88;;;4.50;;
58196;SDS011;43999;51.660;5.616;2023-02-18T10:51:18;11.63;;;6.72;;
58196;SDS011;43999;51.660;5.616;2023-02-18T10:53:56;13.25;;;6.18;;
58196;SDS011;43999;51.660;5.616;2023-02-18T10:56:46;11.93;;;6.18;;
58196;SDS011;43999;51.660;5.616;2023-02-18T10:59:26;6.68;;;5.38;;
58196;SDS011;43999;51.660;5.616;2023-02-18T11:02:22;11.20;;;7.32;;
58196;SDS011;43999;51.660;5.616;2023-02-18T11:05:24;14.43;;;6.93;;
58196;SDS011;43999;51.660;5.616;2023-02-18T11:08:42;12.48;;;6.78;;
58196;SDS011;43999;51.660;5.616;2023-02-18T11:12:26;11.50;;;7.57;;
58196;SDS011;43999;51.660;5.616;2023-02-18T11:15:55;16.08;;;7.25;;
58196;SDS011;43999;51.660;5.616;2023-02-18T11:18:40;12.48;;;8.45;;
58196;SDS011;43999;51.660;5.616;2023-02-18T11:24:59;12.05;;;7.32;;
58196;SDS011;43999;51.660;5.616;2023-02-18T11:28:39;17.90;;;9.32;;
58196;SDS011;43999;51.660;5.616;2023-02-18T11:31:05;10.70;;;7.00;;
58196;SDS011;43999;51.660;5.616;2023-02-18T11:34:29;28.23;;;10.02;;
58196;SDS011;43999;51.660;5.616;2023-02-18T11:37:26;11.60;;;9.07;;
58196;SDS011;43999;51.660;5.616;2023-02-18T11:40:25;13.73;;;8.73;;
58196;SDS011;43999;51.660;5.616;2023-02-18T11:43:26;16.48;;;8.95;;
58196;SDS011;43999;51.660;5.616;2023-02-18T11:46:15;16.20;;;10.38;;
58196;SDS011;43999;51.660;5.616;2023-02-18T11:49:25;14.88;;;10.77;;
58196;SDS011;43999;51.660;5.616;2023-02-18T11:52:04;10.32;;;8.00;;
58196;SDS011;43999;51.660;5.616;2023-02-18T11:55:18;13.25;;;9.13;;
58196;SDS011;43999;51.660;5.616;2023-02-18T11:57:58;14.68;;;10.65;;
58196;SDS011;43999;51.660;5.616;2023-02-18T12:06:42;12.07;;;10.82;;
58196;SDS011;43999;51.660;5.616;2023-02-18T12:09:46;14.45;;;9.50;;
58196;SDS011;43999;51.660;5.616;2023-02-18T12:13:05;17.83;;;8.50;;
58196;SDS011;43999;51.660;5.616;2023-02-18T12:26:57;9.23;;;7.00;;
58196;SDS011;43999;51.660;5.616;2023-02-18T12:40:53;8.88;;;5.25;;
58196;SDS011;43999;51.660;5.616;2023-02-18T12:44:16;8.68;;;5.05;;
58196;SDS011;43999;51.660;5.616;2023-02-18T12:47:53;18.33;;;5.78;;
58196;SDS011;43999;51.660;5.616;2023-02-18T13:02:00;7.90;;;3.42;;
58196;SDS011;43999;51.660;5.616;2023-02-18T13:08:41;8.98;;;3.65;;
58196;SDS011;43999;51.660;5.616;2023-02-18T13:12:03;6.45;;;4.18;;
58196;SDS011;43999;51.660;5.616;2023-02-18T13:18:48;7.93;;;4.72;;
58196;SDS011;43999;51.660;5.616;2023-02-18T13:21:53;5.63;;;4.63;;
58196;SDS011;43999;51.660;5.616;2023-02-18T13:24:46;6.90;;;5.00;;
58196;SDS011;43999;51.660;5.616;2023-02-18T13:38:30;8.97;;;4.60;;
58196;SDS011;43999;51.660;5.616;2023-02-18T13:41:25;5.82;;;4.40;;
58196;SDS011;43999;51.660;5.616;2023-02-18T13:48:20;9.52;;;4.28;;
58196;SDS011;43999;51.660;5.616;2023-02-18T13:51:02;12.10;;;4.35;;
58196;SDS011;43999;51.660;5.616;2023-02-18T13:57:02;8.10;;;3.53;;
58196;SDS011;43999;51.660;5.616;2023-02-18T14:00:18;4.70;;;3.45;;
58196;SDS011;43999;51.660;5.616;2023-02-18T14:07:16;7.28;;;3.85;;
58196;SDS011;43999;51.660;5.616;2023-02-18T14:10:25;6.75;;;3.40;;
58196;SDS011;43999;51.660;5.616;2023-02-18T14:13:18;11.60;;;4.20;;
58196;SDS011;43999;51.660;5.616;2023-02-18T14:26:30;7.45;;;4.00;;
58196;SDS011;43999;51.660;5.616;2023-02-18T14:29:36;10.82;;;4.68;;
58196;SDS011;43999;51.660;5.616;2023-02-18T14:32:10;7.47;;;3.58;;
58196;SDS011;43999;51.660;5.616;2023-02-18T14:38:16;8.75;;;4.10;;
58196;SDS011;43999;51.660;5.616;2023-02-18T14:51:32;7.00;;;3.70;;
58196;SDS011;43999;51.660;5.616;2023-02-18T14:54:06;7.97;;;3.42;;
58196;SDS011;43999;51.660;5.616;2023-02-18T14:56:56;7.55;;;3.50;;
58196;SDS011;43999;51.660;5.616;2023-02-18T14:59:42;8.20;;;3.95;;
58196;SDS011;43999;51.660;5.616;2023-02-18T15:02:20;6.40;;;2.85;;
58196;SDS011;43999;51.660;5.616;2023-02-18T15:05:20;8.32;;;3.67;;
58196;SDS011;43999;51.660;5.616;2023-02-18T15:07:59;8.30;;;3.50;;
58196;SDS011;43999;51.660;5.616;2023-02-18T15:11:00;5.15;;;3.00;;
58196;SDS011;43999;51.660;5.616;2023-02-18T15:13:53;4.70;;;3.45;;
58196;SDS011;43999;51.660;5.616;2023-02-18T15:16:30;5.00;;;2.72;;
58196;SDS011;43999;51.660;5.616;2023-02-18T15:21:55;6.07;;;3.45;;
58196;SDS011;43999;51.660;5.616;2023-02-18T15:24:34;6.10;;;3.03;;
58196;SDS011;43999;51.660;5.616;2023-02-18T15:27:19;5.32;;;3.38;;
58196;SDS011;43999;51.660;5.616;2023-02-18T15:33:20;6.28;;;3.22;;
58196;SDS011;43999;51.660;5.616;2023-02-18T15:36:04;7.07;;;4.15;;
58196;SDS011;43999;51.660;5.616;2023-02-18T15:38:56;11.65;;;3.70;;
58196;SDS011;43999;51.660;5.616;2023-02-18T15:41:39;7.47;;;3.63;;
58196;SDS011;43999;51.660;5.616;2023-02-18T15:44:17;5.03;;;2.90;;
58196;SDS011;43999;51.660;5.616;2023-02-18T15:46:55;5.00;;;3.15;;
58196;SDS011;43999;51.660;5.616;2023-02-18T15:50:00;6.22;;;3.25;;
58196;SDS011;43999;51.660;5.616;2023-02-18T15:52:45;6.28;;;3.22;;
58196;SDS011;43999;51.660;5.616;2023-02-18T15:55:41;9.75;;;4.18;;
58196;SDS011;43999;51.660;5.616;2023-02-18T15:58:30;6.50;;;3.50;;
58196;SDS011;43999;51.660;5.616;2023-02-18T16:02:17;7.15;;;3.55;;
58196;SDS011;43999;51.660;5.616;2023-02-18T16:05:11;6.55;;;3.45;;
58196;SDS011;43999;51.660;5.616;2023-02-18T16:08:13;9.38;;;3.47;;
58196;SDS011;43999;51.660;5.616;2023-02-18T16:11:34;8.20;;;3.60;;
58196;SDS011;43999;51.660;5.616;2023-02-18T16:14:33;7.13;;;3.30;;
58196;SDS011;43999;51.660;5.616;2023-02-18T16:17:29;7.53;;;4.68;;
58196;SDS011;43999;51.660;5.616;2023-02-18T16:20:23;8.20;;;3.25;;
58196;SDS011;43999;51.660;5.616;2023-02-18T16:23:24;7.38;;;3.80;;
58196;SDS011;43999;51.660;5.616;2023-02-18T16:26:21;11.52;;;4.60;;
58196;SDS011;43999;51.660;5.616;2023-02-18T16:29:02;8.88;;;3.42;;
58196;SDS011;43999;51.660;5.616;2023-02-18T16:31:39;6.07;;;3.63;;
58196;SDS011;43999;51.660;5.616;2023-02-18T16:34:13;9.48;;;5.25;;
58196;SDS011;43999;51.660;5.616;2023-02-18T16:36:49;8.70;;;5.15;;
58196;SDS011;43999;51.660;5.616;2023-02-18T16:39:36;5.55;;;3.78;;
58196;SDS011;43999;51.660;5.616;2023-02-18T16:42:11;6.75;;;3.70;;
58196;SDS011;43999;51.660;5.616;2023-02-18T16:44:41;7.32;;;4.25;;
58196;SDS011;43999;51.660;5.616;2023-02-18T16:47:09;6.75;;;3.67;;
58196;SDS011;43999;51.660;5.616;2023-02-18T16:49:59;8.27;;;4.32;;
58196;SDS011;43999;51.660;5.616;2023-02-18T16:52:50;7.05;;;4.20;;
58196;SDS011;43999;51.660;5.616;2023-02-18T16:55:27;6.10;;;3.60;;
58196;SDS011;43999;51.660;5.616;2023-02-18T16:58:09;7.13;;;4.60;;
58196;SDS011;43999;51.660;5.616;2023-02-18T17:00:43;7.63;;;4.60;;
58196;SDS011;43999;51.660;5.616;2023-02-18T17:03:26;8.77;;;5.55;;
58196;SDS011;43999;51.660;5.616;2023-02-18T17:05:56;7.50;;;3.90;;
58196;SDS011;43999;51.660;5.616;2023-02-18T17:08:26;7.60;;;5.25;;
58196;SDS011;43999;51.660;5.616;2023-02-18T17:10:57;10.80;;;6.05;;
58196;SDS011;43999;51.660;5.616;2023-02-18T17:13:27;7.45;;;5.93;;
58196;SDS011;43999;51.660;5.616;2023-02-18T17:18:53;12.52;;;9.15;;
58196;SDS011;43999;51.660;5.616;2023-02-18T17:21:33;12.43;;;10.77;;
58196;SDS011;43999;51.660;5.616;2023-02-18T17:24:03;20.35;;;12.63;;
58196;SDS011;43999;51.660;5.616;2023-02-18T17:26:39;16.02;;;13.88;;
58196;SDS011;43999;51.660;5.616;2023-02-18T17:29:09;20.90;;;13.38;;
58196;SDS011;43999;51.660;5.616;2023-02-18T17:31:55;18.23;;;16.40;;
58196;SDS011;43999;51.660;5.616;2023-02-18T17:34:29;22.85;;;14.80;;
58196;SDS011;43999;51.660;5.616;2023-02-18T17:36:58;19.58;;;15.77;;
58196;SDS011;43999;51.660;5.616;2023-02-18T17:39:31;21.52;;;17.35;;
58196;SDS011;43999;51.660;5.616;2023-02-18T17:42:00;23.83;;;19.33;;
58196;SDS011;43999;51.660;5.616;2023-02-18T17:44:54;28.30;;;22.48;;
58196;SDS011;43999;51.660;5.616;2023-02-18T17:47:28;27.75;;;21.88;;
58196;SDS011;43999;51.660;5.616;2023-02-18T17:50:02;24.85;;;22.10;;
58196;SDS011;43999;51.660;5.616;2023-02-18T17:53:04;25.17;;;21.92;;
58196;SDS011;43999;51.660;5.616;2023-02-18T17:56:24;23.23;;;19.70;;
58196;SDS011;43999;51.660;5.616;2023-02-18T17:58:55;26.80;;;21.73;;
58196;SDS011;43999;51.660;5.616;2023-02-18T18:01:39;25.52;;;21.48;;
58196;SDS011;43999;51.660;5.616;2023-02-18T18:04:58;28.55;;;23.52;;
58196;SDS011;43999;51.660;5.616;2023-02-18T18:08:27;29.88;;;26.08;;
58196;SDS011;43999;51.660;5.616;2023-02-18T18:15:27;34.60;;;29.60;;
58196;SDS011;43999;51.660;5.616;2023-02-18T18:18:57;35.53;;;31.75;;
58196;SDS011;43999;51.660;5.616;2023-02-18T18:21:47;41.63;;;30.08;;
58196;SDS011;43999;51.660;5.616;2023-02-18T18:24:44;36.85;;;31.15;;
58196;SDS011;43999;51.660;5.616;2023-02-18T18:27:28;44.00;;;33.13;;
58196;SDS011;43999;51.660;5.616;2023-02-18T18:30:34;40.83;;;32.10;;
58196;SDS011;43999;51.660;5.616;2023-02-18T18:33:32;38.60;;;30.75;;
58196;SDS011;43999;51.660;5.616;2023-02-18T18:36:05;38.83;;;30.77;;
58196;SDS011;43999;51.660;5.616;2023-02-18T18:38:41;42.80;;;32.08;;
58196;SDS011;43999;51.660;5.616;2023-02-18T18:41:40;41.80;;;29.50;;
58196;SDS011;43999;51.660;5.616;2023-02-18T18:44:16;36.28;;;26.75;;
58196;SDS011;43999;51.660;5.616;2023-02-18T18:46:59;38.03;;;26.65;;
58196;SDS011;43999;51.660;5.616;2023-02-18T18:49:43;34.15;;;27.73;;
58196;SDS011;43999;51.660;5.616;2023-02-18T18:52:46;34.72;;;24.95;;
58196;SDS011;43999;51.660;5.616;2023-02-18T18:55:30;38.92;;;31.52;;
58196;SDS011;43999;51.660;5.616;2023-02-18T18:58:08;36.88;;;25.23;;
58196;SDS011;43999;51.660;5.616;2023-02-18T19:01:04;33.67;;;28.85;;